Observations for FIRENZE PERETOLA, Italy (LIRQ)

LIRQ 191320Z 04012KT 360V090 9999 FEW030 SCT080 26/15 Q1016 
LIRQ 191250Z 05013KT 320V080 9999 FEW080 26/16 Q1016
LIRQ 191220Z 06011KT 030V110 9999 FEW040 SCT080 25/16 Q1016 
LIRQ 191150Z 04008KT 360V100 9999 SCT040 SCT080 26/16 Q1016 
LIRQ 191120Z 04010KT 010V070 9999 FEW040 SCT080 26/17 Q1016 
LIRQ 191050Z 02009KT 340V120 9999 SCT040 SCT080 26/17 Q1016 
LIRQ 191020Z 01007KT 320V060 9999 SCT040 SCT080 25/17 Q1016 
LIRQ 190950Z 01005KT 320V070 9999 SCT040 SCT080 25/17 Q1016 
LIRQ 190920Z 02007KT 350V050 9999 FEW040 SCT080 25/17 Q1016 
LIRQ 190850Z 04005KT 010V080 9999 FEW040 BKN070 24/17 Q1016 
LIRQ 190820Z VRB02KT 9999 SCT050 SCT080 24/18 Q1016 
LIRQ 190750Z 10003KT 070V130 9999 FEW050 SCT080 23/18 Q1016 
LIRQ 190720Z 18003KT 140V220 9999 SCT050 SCT080 22/19 Q1016 
LIRQ 190650Z 21003KT 170V240 9999 SCT050 SCT080 21/20 Q1016 
LIRQ 190620Z 19003KT 9999 SCT070 21/20 Q1015
LIRQ 190550Z 20004KT 9999 BKN050 21/20 Q1015
LIRQ 190520Z 20003KT 9999 BKN050 20/19 Q1015
LIRQ 190450Z VRB02KT 9999 FEW014 BKN050 20/19 Q1015 
LIRQ 190420Z VRB01KT 8000 BKN050 20/19 Q1015
LIRQ 190350Z VRB01KT 9999 BKN050 21/19 Q1015
LIRQ 190320Z VRB02KT 9999 SCT050 20/20 Q1015
LIRQ 190250Z VRB01KT 9999 BKN050 20/20 Q1015
LIRQ 190220Z 15003KT 9999 BKN050 21/20 Q1015
LIRQ 190150Z VRB02KT 9999 FEW027CB BKN060 21/19 Q1015   
LIRQ 190120Z 04003KT 360V090 9999 -TSRA FEW026CB BKN040 21/19 Q1015 RERA
LIRQ 190050Z VRB03KT 4000 TSRA SCT024CB BKN040 22/19 Q1015  
LIRQ 190020Z 05002KT 9999 VCTS FEW030CB BKN040 22/18 Q1015  
LIRQ 182350Z 06004KT 9999 BKN040 22/18 Q1015
LIRQ 182320Z 10003KT 9999 BKN040 22/17 Q1015
LIRQ 182250Z VRB01KT 9999 BKN040 21/17 Q1015
LIRQ 182220Z 09003KT 9999 SCT035 21/17 Q1015
LIRQ 182150Z 09002KT 9999 FEW040 22/18 Q1016
LIRQ 182120Z VRB02KT 9999 SCT045 22/18 Q1016
LIRQ 182050Z 21004KT 9999 SCT030 SCT060 24/18 Q1016 
LIRQ 182020Z 21004KT 9999 FEW060 24/18 Q1015
LIRQ 181950Z 24004KT CAVOK 24/17 Q1015  
LIRQ 181920Z 22003KT 190V260 9999 FEW060 24/17 Q1015
LIRQ 181850Z 27003KT 230V310 9999 FEW060 25/18 Q1015
LIRQ 181820Z 22006KT 190V250 9999 FEW040 26/18 Q1014
LIRQ 181750Z 27004KT 240V310 9999 FEW040 26/18 Q1014
LIRQ 181720Z 28005KT 9999 FEW060 27/17 Q1014
LIRQ 181650Z VRB02KT 9999 FEW050 28/16 Q1014
LIRQ 181620Z 28003KT 230V310 9999 FEW050 29/16 Q1014
LIRQ 181550Z 28005KT 260V320 9999 FEW050 29/16 Q1014
LIRQ 181520Z 26004KT 220V300 9999 FEW050 29/16 Q1013
LIRQ 181450Z 30004KT 250V030 9999 FEW050 29/16 Q1014
LIRQ 181420Z 32006KT 280V360 9999 FEW050 SCT060 30/17 Q1014 
LIRQ 181350Z 34004KT 290V040 9999 FEW050 BKN060 29/17 Q1014 
LIRQ 181320Z 33004KT 280V040 9999 SCT050 29/16 Q1014
LIRQ 181250Z 15004KT 070V240 9999 SCT040 29/17 Q1014